Time;durP1;ratioP1;P1;durP2;ratioP2;P2;SDS_P1;SDS_P2;PMS_P1;PMS_P2;Temp;Humidity;BMP_temperature;BMP_pressure;BME280_temperature;BME280_humidity;BME280_pressure;Samples;Min_cycle;Max_cycle;Signal;HPM_P1;HPM_P2
2020/12/10 00:00:29;;;;;;;1.55;1.13;;;;;;;13.53;52.59;100910.09;4987952;28;20372;-44
2020/12/10 00:02:54;;;;;;;2.83;0.65;;;;;;;13.37;52.82;100911.03;4988692;28;20061;-40
2020/12/10 00:05:20;;;;;;;3.13;0.45;;;;;;;13.42;50.16;100906.50;4987949;28;20089;-40
2020/12/10 00:07:46;;;;;;;5.18;0.45;;;;;;;13.37;54.57;100911.03;4988371;28;20372;-45
2020/12/10 00:10:11;;;;;;;0.70;0.52;;;;;;;13.35;52.64;100913.97;4988665;28;20050;-41
2020/12/10 00:12:43;;;;;;;4.82;1.05;;;;;;;13.32;51.23;100910.97;4987749;28;20035;-45
2020/12/10 00:15:10;;;;;;;1.55;0.70;;;;;;;13.40;54.37;100908.66;4988817;28;20125;-44
2020/12/10 00:17:36;;;;;;;3.17;0.70;;;;;;;13.55;51.52;100899.91;4978376;28;20038;-40
2020/12/10 00:20:07;;;;;;;7.85;0.95;;;;;;;13.68;50.67;100889.78;4973531;28;20042;-44
2020/12/10 00:22:34;;;;;;;0.50;0.50;;;;;;;13.60;50.19;100886.50;4981339;28;20034;-39
2020/12/10 00:25:00;;;;;;;0.57;0.30;;;;;;;13.61;50.99;100880.03;4974129;28;20421;-41
2020/12/10 00:27:26;;;;;;;1.25;0.52;;;;;;;13.55;50.88;100872.97;4974355;28;20030;-39
2020/12/10 00:29:52;;;;;;;0.70;0.50;;;;;;;13.55;51.57;100874.84;4973675;28;20034;-40
2020/12/10 00:32:18;;;;;;;3.50;0.68;;;;;;;13.61;51.51;100880.03;4988079;28;20042;-43
2020/12/10 00:34:45;;;;;;;3.03;1.00;;;;;;;13.66;50.67;100873.06;4991199;28;20049;-44
2020/12/10 00:37:11;;;;;;;5.65;1.33;;;;;;;13.57;50.96;100868.13;4990291;28;20395;-42
2020/12/10 00:39:36;;;;;;;3.92;0.73;;;;;;;13.67;50.93;100861.19;4991505;28;20034;-45
2020/12/10 00:42:04;;;;;;;1.23;0.38;;;;;;;13.49;52.70;100855.13;4990804;28;20464;-43
2020/12/10 00:44:29;;;;;;;1.27;0.60;;;;;;;13.48;51.04;100856.22;4986414;28;20125;-39
2020/12/10 00:46:55;;;;;;;3.00;0.60;;;;;;;13.57;50.41;100860.06;4978272;28;20114;-41
2020/12/10 00:49:21;;;;;;;1.55;0.38;;;;;;;13.49;51.22;100844.34;4973596;28;20451;-39
2020/12/10 00:51:48;;;;;;;7.57;1.02;;;;;;;13.64;49.98;100843.69;4985361;28;20030;-41
2020/12/10 00:54:14;;;;;;;1.65;0.55;;;;;;;13.66;50.06;100840.75;4973158;28;20061;-42
2020/12/10 00:56:39;;;;;;;6.55;1.20;;;;;;;13.55;50.25;100835.25;4973507;28;20395;-42
2020/12/10 00:59:05;;;;;;;3.13;0.40;;;;;;;13.66;50.03;100830.75;4973555;28;20555;-40
2020/12/10 01:01:31;;;;;;;0.52;0.30;;;;;;;13.71;49.68;100829.97;4973924;28;20038;-45
2020/12/10 01:03:56;;;;;;;8.52;0.73;;;;;;;13.65;50.58;100831.81;4973028;28;20551;-39
2020/12/10 01:06:22;;;;;;;0.85;0.52;;;;;;;13.71;50.53;100829.97;4973879;28;20118;-41
2020/12/10 01:08:47;;;;;;;1.65;0.73;;;;;;;13.61;50.57;100826.13;4973345;28;20043;-39
2020/12/10 01:11:13;;;;;;;1.65;1.20;;;;;;;13.53;51.20;100834.69;4973002;28;20070;-42
2020/12/10 01:13:38;;;;;;;5.65;2.15;;;;;;;13.56;50.96;100839.56;4973745;28;20037;-40
2020/12/10 01:16:04;;;;;;;3.38;2.03;;;;;;;13.32;51.72;100841.75;4976430;28;20046;-40
2020/12/10 01:18:29;;;;;;;3.95;1.45;;;;;;;13.34;52.17;100836.13;4984797;28;20045;-45
2020/12/10 01:20:54;;;;;;;3.13;1.33;;;;;;;13.27;51.68;100824.72;4973360;28;20031;-45
2020/12/10 01:23:20;;;;;;;3.10;1.92;;;;;;;13.29;51.91;100846.81;4973799;28;20039;-42
2020/12/10 01:25:46;;;;;;;1.77;1.25;;;;;;;13.49;51.53;100835.47;4973409;28;20064;-39
2020/12/10 01:28:11;;;;;;;8.13;1.40;;;;;;;13.50;51.45;100829.81;4973141;28;20031;-42
2020/12/10 01:30:36;;;;;;;4.45;1.73;;;;;;;13.40;51.76;100832.44;4973261;28;20038;-39
2020/12/10 01:33:03;;;;;;;9.07;2.60;;;;;;;13.35;51.48;100835.06;4972585;28;20042;-42
2020/12/10 01:35:28;;;;;;;1.15;0.85;;;;;;;13.30;51.60;100822.34;4975286;28;20050;-42
2020/12/10 01:37:53;;;;;;;1.63;0.93;;;;;;;13.35;51.01;100824.31;4972893;28;20392;-41
2020/12/10 01:40:19;;;;;;;7.72;0.50;;;;;;;13.24;50.98;100823.38;4980653;28;20121;-43
2020/12/10 01:42:44;;;;;;;1.80;1.13;;;;;;;13.40;51.07;100821.66;4973380;28;20452;-43
2020/12/10 01:45:10;;;;;;;2.65;0.73;;;;;;;13.42;50.85;100806.06;4973246;28;20035;-39
2020/12/10 01:47:36;;;;;;;1.83;0.70;;;;;;;13.40;50.31;100805.50;4973093;28;20034;-40
2020/12/10 01:50:03;;;;;;;2.67;0.98;;;;;;;13.38;50.04;100792.28;4977698;28;20059;-41
2020/12/10 01:52:28;;;;;;;2.17;1.13;;;;;;;13.43;50.28;100791.53;4985060;28;20146;-44
2020/12/10 01:54:54;;;;;;;5.30;1.60;;;;;;;13.30;51.31;100786.53;4978784;28;20122;-42
2020/12/10 01:57:19;;;;;;;1.30;0.82;;;;;;;13.09;52.29;100783.63;4977122;28;20042;-43
2020/12/10 01:59:49;;;;;;;11.10;2.90;;;;;;;13.21;51.84;100778.91;4976660;28;20039;-42
2020/12/10 02:02:15;;;;;;;2.97;1.35;;;;;;;13.21;52.03;100784.28;4976605;28;20035;-41
2020/12/10 02:04:40;;;;;;;9.80;1.67;;;;;;;13.17;52.26;100777.81;4993288;28;20034;-41
2020/12/10 02:07:06;;;;;;;6.43;1.83;;;;;;;13.16;51.28;100773.47;4993474;28;20030;-39
2020/12/10 02:09:33;;;;;;;4.57;2.35;;;;;;;13.16;52.18;100765.41;4992945;28;20038;-40
2020/12/10 02:11:59;;;;;;;3.35;1.38;;;;;;;13.09;52.32;100764.78;4993821;28;20030;-43
2020/12/10 02:14:31;;;;;;;3.50;1.30;;;;;;;13.13;51.89;100757.03;4993216;28;20065;-47
2020/12/10 02:16:57;;;;;;;4.25;1.50;;;;;;;13.17;52.48;100752.78;4992647;28;20752;-39
2020/12/10 02:19:22;;;;;;;3.08;1.75;;;;;;;13.18;51.84;100747.13;4993011;28;20087;-42
2020/12/10 02:21:48;;;;;;;2.70;0.85;;;;;;;13.27;51.47;100738.56;4993659;28;20054;-40
2020/12/10 02:24:20;;;;;;;2.45;1.00;;;;;;;13.17;51.35;100745.50;4993339;28;20100;-42
2020/12/10 02:26:47;;;;;;;5.35;1.85;;;;;;;13.14;52.18;100742.50;4993404;28;20565;-42
2020/12/10 02:29:13;;;;;;;3.63;1.75;;;;;;;13.16;52.34;100743.84;4992606;28;20201;-41
2020/12/10 02:31:38;;;;;;;5.03;1.17;;;;;;;13.07;53.20;100744.59;4976227;28;20027;-40
2020/12/10 02:34:06;;;;;;;6.03;1.42;;;;;;;13.11;52.80;100756.47;4989066;28;20038;-39
2020/12/10 02:36:33;;;;;;;3.75;1.33;;;;;;;13.07;53.19;100745.41;4993200;28;20058;-43
2020/12/10 02:38:59;;;;;;;5.88;1.77;;;;;;;13.03;53.32;100736.22;4993398;28;20092;-40
2020/12/10 02:41:26;;;;;;;13.45;4.72;;;;;;;12.86;52.99;100726.38;4992392;28;20038;-40
2020/12/10 02:43:51;;;;;;;4.68;2.58;;;;;;;13.05;52.81;100731.41;4992579;28;20431;-43
2020/12/10 02:46:17;;;;;;;2.95;0.77;;;;;;;13.17;52.16;100729.34;4992782;28;20038;-41
2020/12/10 02:48:44;;;;;;;3.92;1.13;;;;;;;13.26;52.13;100742.34;4992568;28;20045;-40
2020/12/10 02:51:10;;;;;;;2.92;1.60;;;;;;;13.24;52.59;100723.75;4993180;28;20040;-39
2020/12/10 02:53:36;;;;;;;2.30;0.68;;;;;;;13.27;52.89;100722.41;4992086;28;20035;-40
2020/12/10 02:56:10;;;;;;;4.50;1.60;;;;;;;13.20;53.10;100718.06;4993019;28;20459;-43
2020/12/10 02:58:37;;;;;;;2.08;0.93;;;;;;;13.19;53.18;100721.81;4992282;28;20049;-44
2020/12/10 03:01:05;;;;;;;2.70;1.33;;;;;;;13.28;52.41;100705.19;4991577;28;20034;-39
2020/12/10 03:03:31;;;;;;;2.08;0.65;;;;;;;13.21;53.21;100708.09;4991963;28;20027;-41
2020/12/10 03:05:56;;;;;;;2.65;0.82;;;;;;;13.12;53.44;100715.03;4992660;28;20033;-44
2020/12/10 03:08:22;;;;;;;1.85;0.60;;;;;;;13.23;54.03;100720.22;4991849;28;20073;-42
2020/12/10 03:10:48;;;;;;;5.38;1.65;;;;;;;13.26;53.19;100710.03;4992368;28;20038;-41
2020/12/10 03:13:15;;;;;;;4.20;0.60;;;;;;;13.33;53.02;100710.66;4985744;28;20030;-42
2020/12/10 03:15:41;;;;;;;3.83;1.20;;;;;;;13.36;53.60;100702.88;4982854;28;20039;-41
2020/12/10 03:18:06;;;;;;;4.88;1.40;;;;;;;13.36;54.03;100702.88;4979203;28;20503;-42
2020/12/10 03:20:32;;;;;;;2.00;0.82;;;;;;;13.34;53.64;100702.31;4975357;28;20050;-41
2020/12/10 03:22:57;;;;;;;1.92;0.85;;;;;;;13.39;53.73;100693.44;4975347;28;20034;-45
2020/12/10 03:25:24;;;;;;;2.67;1.58;;;;;;;13.20;53.04;100675.00;4975683;28;20475;-46
2020/12/10 03:27:50;;;;;;;5.15;0.20;;;;;;;13.28;52.80;100686.34;4975147;28;20039;-39
2020/12/10 03:30:15;;;;;;;5.38;1.05;;;;;;;13.31;52.95;100675.91;4974569;28;20035;-43
2020/12/10 03:32:41;;;;;;;1.42;0.75;;;;;;;13.24;52.47;100672.59;4977905;28;20112;-41
2020/12/10 03:35:07;;;;;;;3.00;0.52;;;;;;;13.03;53.75;100674.31;4979061;28;20045;-40
2020/12/10 03:37:32;;;;;;;1.30;0.65;;;;;;;13.14;54.10;100667.94;4974666;28;20042;-42
2020/12/10 03:39:58;;;;;;;1.95;0.45;;;;;;;13.24;53.45;100670.69;4974949;28;20046;-40
2020/12/10 03:42:23;;;;;;;7.40;1.15;;;;;;;13.37;53.38;100655.19;4975221;28;20117;-45
2020/12/10 03:44:49;;;;;;;1.10;0.63;;;;;;;13.42;53.76;100649.84;4974940;28;20043;-43
2020/12/10 03:47:14;;;;;;;1.27;0.80;;;;;;;13.44;53.46;100639.63;4981652;28;20038;-40
2020/12/10 03:49:39;;;;;;;2.25;0.68;;;;;;;13.44;52.88;100628.84;4982428;28;20152;-40
2020/12/10 03:52:05;;;;;;;4.78;1.33;;;;;;;13.34;53.58;100626.09;4979656;28;20061;-43
2020/12/10 03:54:30;;;;;;;2.75;0.70;;;;;;;13.17;53.76;100623.56;4976048;28;20042;-42
2020/12/10 03:56:56;;;;;;;1.55;0.85;;;;;;;13.09;53.60;100626.72;4973795;28;20077;-42
2020/12/10 03:59:21;;;;;;;5.80;0.90;;;;;;;13.29;52.79;100624.16;4984945;28;20043;-43
2020/12/10 04:01:47;;;;;;;1.23;0.63;;;;;;;13.28;53.26;100619.03;4991795;28;20034;-40
2020/12/10 04:04:12;;;;;;;0.88;0.30;;;;;;;13.12;54.28;100608.16;4991916;28;20115;-40
2020/12/10 04:06:42;;;;;;;4.90;1.70;;;;;;;13.31;53.67;100599.69;4990951;28;20074;-43
2020/12/10 04:09:12;;;;;;;1.15;0.60;;;;;;;13.34;53.87;100602.69;4991421;28;20049;-44
2020/12/10 04:11:38;;;;;;;7.13;1.33;;;;;;;13.39;54.01;100605.41;4988228;28;20031;-40
2020/12/10 04:14:04;;;;;;;5.43;1.60;;;;;;;13.42;53.96;100594.09;4989599;28;20039;-39
2020/12/10 04:16:29;;;;;;;3.22;1.42;;;;;;;13.48;53.53;100583.34;4990651;28;20513;-40
2020/12/10 04:18:55;;;;;;;10.88;1.85;;;;;;;13.48;54.05;100580.66;4991128;28;20031;-41
2020/12/10 04:21:20;;;;;;;4.28;0.70;;;;;;;13.49;54.78;100572.31;4984180;28;20069;-40
2020/12/10 04:23:45;;;;;;;3.33;1.45;;;;;;;13.49;54.91;100566.13;4973913;28;20035;-40
2020/12/10 04:26:14;;;;;;;14.50;2.75;;;;;;;13.45;55.07;100559.63;4977851;28;20085;-40
2020/12/10 04:28:40;;;;;;;5.03;1.25;;;;;;;13.42;55.22;100563.66;4973767;28;20041;-40
2020/12/10 04:31:06;;;;;;;2.65;1.38;;;;;;;13.46;54.64;100553.97;4973357;28;20035;-43
2020/12/10 04:33:31;;;;;;;14.00;1.02;;;;;;;13.47;54.87;100558.31;4974130;28;20464;-42
2020/12/10 04:35:56;;;;;;;4.28;0.73;;;;;;;13.27;56.51;100542.00;4974073;28;20798;-42
2020/12/10 04:38:22;;;;;;;9.63;1.90;;;;;;;13.33;56.16;100547.19;4973932;28;20041;-40
2020/12/10 04:40:47;;;;;;;3.78;1.38;;;;;;;13.46;55.93;100542.41;4973934;28;20050;-39
2020/12/10 04:43:14;;;;;;;5.47;2.38;;;;;;;13.46;55.83;100532.44;4973467;28;20038;-44
2020/12/10 04:45:40;;;;;;;5.53;1.77;;;;;;;13.50;56.13;100525.47;4973796;28;20432;-40
2020/12/10 04:48:06;;;;;;;11.45;2.03;;;;;;;13.45;56.50;100527.31;4973960;28;20035;-44
2020/12/10 04:50:34;;;;;;;2.33;1.27;;;;;;;13.45;57.28;100522.75;4973586;28;20136;-43
2020/12/10 04:53:00;;;;;;;3.90;2.28;;;;;;;13.53;55.97;100519.53;4973621;28;20114;-42
2020/12/10 04:55:26;;;;;;;7.97;0.93;;;;;;;13.55;56.35;100519.25;4974298;28;20169;-42
2020/12/10 04:57:53;;;;;;;3.85;1.65;;;;;;;13.55;56.77;100514.72;4977729;28;20034;-43
2020/12/10 05:00:20;;;;;;;4.43;2.38;;;;;;;13.52;56.63;100507.16;4990493;28;20442;-39
2020/12/10 05:02:45;;;;;;;11.32;2.25;;;;;;;13.50;57.19;100516.56;4973066;28;20093;-42
2020/12/10 05:05:24;;;;;;;4.15;1.65;;;;;;;13.50;57.43;100517.38;4972948;28;20046;-44
2020/12/10 05:07:51;;;;;;;12.95;1.58;;;;;;;13.51;57.69;100510.91;4983651;28;20026;-39
2020/12/10 05:10:16;;;;;;;15.18;1.88;;;;;;;13.49;57.78;100521.13;4990594;28;20042;-41
2020/12/10 05:12:46;;;;;;;5.22;2.03;;;;;;;13.46;57.81;100510.88;4988437;28;20207;-40
2020/12/10 05:15:16;;;;;;;5.47;0.95;;;;;;;13.47;57.74;100512.53;4980573;28;20042;-43
2020/12/10 05:17:42;;;;;;;8.43;2.20;;;;;;;13.44;58.08;100507.66;4982945;28;20049;-40
2020/12/10 05:20:07;;;;;;;8.98;2.08;;;;;;;13.37;57.68;100512.47;4990577;28;20038;-41
2020/12/10 05:22:33;;;;;;;2.67;1.52;;;;;;;13.50;57.76;100495.00;4989844;28;20034;-41
2020/12/10 05:25:03;;;;;;;6.43;2.30;;;;;;;13.53;57.75;100495.28;4993823;28;20027;-40
2020/12/10 05:27:30;;;;;;;5.97;1.98;;;;;;;13.54;58.03;100483.44;4985058;28;20558;-40
2020/12/10 05:29:56;;;;;;;4.05;0.90;;;;;;;13.57;58.97;100480.22;4977225;28;20034;-40
2020/12/10 05:32:41;;;;;;;4.03;1.95;;;;;;;13.45;59.37;100482.34;4977422;28;20039;-43
2020/12/10 05:35:17;;;;;;;8.55;2.20;;;;;;;13.38;58.99;100487.19;4977138;28;20038;-39
2020/12/10 05:37:43;;;;;;;3.53;1.23;;;;;;;13.34;59.84;100486.06;4994028;28;20038;-43
2020/12/10 05:40:08;;;;;;;3.92;1.80;;;;;;;13.45;59.52;100489.59;4993733;28;20146;-41
2020/12/10 05:42:39;;;;;;;9.23;2.30;;;;;;;13.49;59.65;100480.75;4993197;28;20041;-39
2020/12/10 05:45:19;;;;;;;4.07;1.90;;;;;;;13.34;59.40;100486.06;4994060;28;20085;-40
2020/12/10 05:47:48;;;;;;;5.45;1.85;;;;;;;13.28;59.04;100479.03;4994372;28;20054;-44
2020/12/10 05:50:16;;;;;;;5.22;1.90;;;;;;;13.38;59.74;100476.41;4976669;28;20054;-40
2020/12/10 05:52:48;;;;;;;3.03;2.17;;;;;;;13.42;59.70;100478.28;4994124;28;20069;-40
2020/12/10 05:55:15;;;;;;;4.55;1.60;;;;;;;13.49;58.75;100475.34;4994064;28;20043;-39
2020/12/10 05:57:42;;;;;;;2.15;1.20;;;;;;;13.32;59.20;100475.56;4992894;28;20317;-40
2020/12/10 06:00:07;;;;;;;2.45;1.60;;;;;;;13.39;59.28;100480.69;4993703;28;20030;-41
2020/12/10 06:02:33;;;;;;;3.38;1.60;;;;;;;13.42;59.68;100469.41;4993290;28;20502;-39
2020/12/10 06:04:59;;;;;;;7.45;3.22;;;;;;;13.44;59.17;100467.25;4994301;28;20089;-39
2020/12/10 06:07:25;;;;;;;4.40;2.35;;;;;;;13.37;60.97;100467.50;4983952;28;20118;-39
2020/12/10 06:09:50;;;;;;;8.88;5.53;;;;;;;13.46;60.23;100470.47;4976607;28;20145;-41
2020/12/10 06:12:15;;;;;;;15.43;6.00;;;;;;;13.49;60.74;100461.09;4976487;28;20054;-39
2020/12/10 06:14:50;;;;;;;10.10;3.75;;;;;;;13.38;61.32;100460.25;4976827;28;20085;-44
2020/12/10 06:17:15;;;;;;;14.80;4.30;;;;;;;13.40;60.58;100463.47;4975919;28;20035;-42
2020/12/10 06:19:41;;;;;;;9.68;4.53;;;;;;;13.37;60.96;100464.00;4992921;28;20243;-40
2020/12/10 06:22:26;;;;;;;24.75;12.15;;;;;;;13.39;61.72;100462.69;4993521;28;20038;-41
2020/12/10 06:24:59;;;;;;;17.70;9.05;;;;;;;13.46;61.69;100462.41;4976120;28;20077;-42
2020/12/10 06:27:26;;;;;;;12.55;6.75;;;;;;;13.42;63.12;100458.63;4987008;28;20034;-40
2020/12/10 06:30:13;;;;;;;5.18;2.72;;;;;;;13.30;64.42;100458.03;4975611;28;20117;-42
2020/12/10 06:32:51;;;;;;;6.80;2.60;;;;;;;13.36;63.63;100443.56;4983300;28;20030;-44
2020/12/10 06:35:31;;;;;;;8.57;2.53;;;;;;;13.34;62.89;100442.97;4975190;28;20125;-43
2020/12/10 06:37:57;;;;;;;2.55;1.65;;;;;;;13.40;62.21;100447.31;4975986;28;20094;-42
2020/12/10 06:40:32;;;;;;;5.57;1.73;;;;;;;13.42;63.26;100445.97;4976737;28;20039;-41
2020/12/10 06:42:58;;;;;;;7.63;1.70;;;;;;;13.24;64.33;100446.44;4986717;28;20125;-45
2020/12/10 06:45:24;;;;;;;4.28;2.08;;;;;;;13.29;64.27;100440.25;4978150;28;20243;-44
2020/12/10 06:47:50;;;;;;;7.78;2.13;;;;;;;13.34;64.27;100433.03;4979235;28;20038;-43
2020/12/10 06:50:26;;;;;;;3.55;1.88;;;;;;;13.31;64.61;100422.78;4992734;28;20046;-42
2020/12/10 06:53:21;;;;;;;17.17;6.15;;;;;;;13.30;65.60;100423.03;4992683;28;20034;-42
2020/12/10 06:55:56;;;;;;;16.52;7.22;;;;;;;13.15;66.25;100411.16;4975616;28;20101;-41
2020/12/10 06:58:43;;;;;;;11.25;7.10;;;;;;;13.09;66.61;100414.88;4975363;28;20429;-44
2020/12/10 07:01:34;;;;;;;8.85;3.10;;;;;;;13.08;66.04;100407.88;4979202;28;20125;-44
2020/12/10 07:04:32;;;;;;;5.75;3.78;;;;;;;13.16;66.60;100403.88;4987585;28;20034;-43
2020/12/10 07:07:21;;;;;;;14.02;4.50;;;;;;;13.25;66.71;100391.50;4987215;28;20379;-40
2020/12/10 07:10:01;;;;;;;20.60;10.07;;;;;;;13.27;66.34;100393.94;4975063;28;20067;-43
2020/12/10 07:12:32;;;;;;;15.50;6.85;;;;;;;13.19;67.70;100396.06;4986539;28;20037;-40
2020/12/10 07:15:26;;;;;;;8.60;3.10;;;;;;;13.14;67.50;100396.06;4982736;28;20047;-39
2020/12/10 07:17:57;;;;;;;10.30;5.40;;;;;;;13.22;67.35;100392.84;4991565;28;20537;-43
2020/12/10 07:20:23;;;;;;;12.70;5.28;;;;;;;13.24;67.64;100404.16;4991878;28;20506;-40
2020/12/10 07:22:49;;;;;;;28.55;12.57;;;;;;;13.15;68.07;100397.69;4992748;28;20030;-40
2020/12/10 07:25:16;;;;;;;93.00;17.08;;;;;;;13.26;67.41;100398.53;4992437;28;20049;-41
2020/12/10 07:27:42;;;;;;;17.27;12.32;;;;;;;13.38;67.78;100392.94;4991574;28;20467;-40
2020/12/10 07:30:11;;;;;;;25.33;9.13;;;;;;;13.51;66.63;100389.69;4986602;28;20039;-44
2020/12/10 07:32:39;;;;;;;18.00;3.88;;;;;;;13.24;66.89;100395.28;4982277;28;20133;-42
2020/12/10 07:35:04;;;;;;;4.43;2.97;;;;;;;13.16;66.74;100383.13;4979364;28;20057;-42
2020/12/10 07:37:31;;;;;;;7.55;3.65;;;;;;;13.22;66.39;100386.66;4982237;28;20038;-40
2020/12/10 07:40:07;;;;;;;19.25;5.05;;;;;;;13.28;65.71;100398.25;4978113;28;20089;-42
2020/12/10 07:42:33;;;;;;;14.25;4.70;;;;;;;13.26;66.57;100397.72;4975214;28;20109;-41
2020/12/10 07:45:25;;;;;;;14.23;4.78;;;;;;;13.28;66.80;100398.25;4982503;28;20475;-41
2020/12/10 07:47:58;;;;;;;7.60;2.88;;;;;;;13.21;65.14;100399.31;4992011;28;20391;-36
2020/12/10 07:50:25;;;;;;;2.85;1.77;;;;;;;13.22;66.12;100398.25;4990905;28;20061;-39
2020/12/10 07:52:52;;;;;;;5.40;2.35;;;;;;;13.03;65.26;100405.19;4987229;28;20440;-38
2020/12/10 07:55:26;;;;;;;7.50;3.50;;;;;;;13.08;66.62;100399.81;4981300;28;20053;-38
2020/12/10 07:58:07;;;;;;;11.00;4.40;;;;;;;13.30;65.65;100404.19;4979410;28;20066;-39
2020/12/10 08:00:33;;;;;;;13.38;3.40;;;;;;;13.35;65.83;100388.88;4974949;28;20046;-37
2020/12/10 08:03:11;;;;;;;9.98;3.58;;;;;;;13.34;65.97;100389.13;4973801;28;20035;-36
2020/12/10 08:05:37;;;;;;;10.00;2.85;;;;;;;13.37;65.87;100377.84;4975238;28;20038;-36
2020/12/10 08:08:03;;;;;;;2.85;2.10;;;;;;;13.40;65.71;100382.69;4976462;28;20066;-36
2020/12/10 08:10:33;;;;;;;10.63;3.97;;;;;;;13.32;65.80;100393.97;4983191;28;20058;-35
2020/12/10 08:13:11;;;;;;;8.82;3.00;;;;;;;13.09;67.16;100384.47;4974434;28;20033;-36
2020/12/10 08:15:38;;;;;;;8.48;5.30;;;;;;;13.15;68.75;100384.22;4977546;28;20054;-36
2020/12/10 08:18:06;;;;;;;6.10;5.22;;;;;;;13.13;65.46;100367.53;4991188;28;20108;-36
2020/12/10 08:20:41;;;;;;;5.45;2.40;;;;;;;13.02;64.00;100372.06;4990204;28;20041;-38
2020/12/10 08:23:06;;;;;;;5.65;3.22;;;;;;;13.08;67.45;100380.16;4984122;28;20482;-36
2020/12/10 08:25:32;;;;;;;3.58;1.50;;;;;;;13.13;66.31;100381.00;4974631;28;20125;-39
2020/12/10 08:27:57;;;;;;;9.65;4.20;;;;;;;13.23;67.19;100389.06;4973755;28;20034;-35
2020/12/10 08:30:24;;;;;;;13.98;4.65;;;;;;;13.22;67.53;100390.16;4980318;28;20467;-40
2020/12/10 08:32:54;;;;;;;2.78;1.58;;;;;;;13.26;65.17;100376.97;4985812;28;20495;-40
2020/12/10 08:35:20;;;;;;;9.85;2.38;;;;;;;13.20;66.97;100380.72;4980330;28;20038;-43
2020/12/10 08:37:46;;;;;;;4.82;2.40;;;;;;;13.12;67.35;100381.25;4982981;28;20074;-46
2020/12/10 08:40:21;;;;;;;5.97;2.70;;;;;;;13.07;68.00;100368.56;4991177;28;20134;-44
2020/12/10 08:42:47;;;;;;;10.52;4.20;;;;;;;13.15;69.06;100381.53;4973985;28;20031;-45
2020/12/10 08:45:13;;;;;;;14.80;4.10;;;;;;;13.21;67.99;100382.34;4973825;28;20383;-46
2020/12/10 08:47:38;;;;;;;15.90;5.30;;;;;;;13.30;68.60;100386.13;4974595;28;20110;-48
2020/12/10 08:50:26;;;;;;;13.20;2.15;;;;;;;13.26;66.08;100370.78;4973583;28;20464;-46
2020/12/10 08:53:04;;;;;;;9.77;4.45;;;;;;;13.22;67.03;100390.16;4984166;28;20701;-44
2020/12/10 08:55:40;;;;;;;7.70;3.10;;;;;;;13.30;67.34;100374.56;4990240;28;20125;-45
2020/12/10 08:58:06;;;;;;;28.08;4.45;;;;;;;13.29;65.14;100381.84;4990036;28;20038;-43
2020/12/10 09:00:35;;;;;;;15.45;4.65;;;;;;;13.35;67.52;100402.34;4990557;28;20438;-45
2020/12/10 09:03:01;;;;;;;11.10;5.25;;;;;;;13.35;66.53;100399.63;4990068;28;20052;-46
2020/12/10 09:05:26;;;;;;;8.88;5.15;;;;;;;13.38;68.04;100385.66;4985503;28;20463;-49
2020/12/10 09:07:51;;;;;;;4.18;1.35;;;;;;;13.42;68.11;100380.53;4976967;28;20031;-44
2020/12/10 09:10:19;;;;;;;8.35;4.82;;;;;;;13.45;67.59;100389.94;4985806;28;20124;-44
2020/12/10 09:12:45;;;;;;;13.15;4.65;;;;;;;13.48;68.27;100378.66;4978851;28;20055;-46
2020/12/10 09:15:11;;;;;;;10.07;2.40;;;;;;;13.39;64.40;100363.03;4970001;28;20089;-43
2020/12/10 09:17:36;;;;;;;21.20;4.45;;;;;;;13.52;67.25;100375.16;4985323;28;20157;-49
2020/12/10 09:20:03;;;;;;;20.08;4.78;;;;;;;13.56;67.37;100360.09;4974874;28;20041;-45
2020/12/10 09:22:28;;;;;;;4.75;3.20;;;;;;;13.61;66.28;100370.88;4984550;28;20077;-45
2020/12/10 09:24:55;;;;;;;19.33;4.13;;;;;;;13.56;67.92;100378.94;4986963;28;20422;-44
2020/12/10 09:27:22;;;;;;;10.25;2.53;;;;;;;13.51;68.24;100362.75;4986139;28;20097;-43
2020/12/10 09:29:48;;;;;;;20.58;4.63;;;;;;;13.60;67.42;100363.03;4984732;28;20030;-45
2020/12/10 09:32:13;;;;;;;9.70;3.17;;;;;;;13.62;66.72;100374.34;4985378;28;20026;-46
2020/12/10 09:34:39;;;;;;;10.52;2.80;;;;;;;13.65;67.27;100354.97;4975500;28;20073;-44
2020/12/10 09:37:04;;;;;;;17.60;4.63;;;;;;;13.61;66.86;100365.47;4982897;28;20043;-43
2020/12/10 09:39:32;;;;;;;4.03;2.10;;;;;;;13.62;67.90;100371.66;4982254;28;20041;-45
2020/12/10 09:41:59;;;;;;;18.10;2.90;;;;;;;13.53;66.61;100335.56;4982629;28;20037;-44
2020/12/10 09:44:24;;;;;;;5.45;3.22;;;;;;;13.60;68.41;100345.03;4982523;28;20038;-46
2020/12/10 09:46:50;;;;;;;7.85;4.38;;;;;;;13.71;67.64;100335.06;4982385;28;20075;-44
2020/12/10 09:49:15;;;;;;;5.57;2.45;;;;;;;13.70;65.79;100333.41;4982816;28;20050;-45
2020/12/10 09:51:46;;;;;;;4.88;3.97;;;;;;;13.58;66.65;100347.16;4982099;28;20038;-42
2020/12/10 09:54:33;;;;;;;18.35;8.65;;;;;;;13.64;68.74;100360.63;4983313;28;20046;-45
2020/12/10 09:57:08;;;;;;;35.17;26.20;;;;;;;13.70;69.02;100363.06;4982329;28;20387;-43
2020/12/10 09:59:36;;;;;;;10.07;7.43;;;;;;;13.71;68.42;100369.25;4981068;28;20054;-45
2020/12/10 10:02:02;;;;;;;21.63;16.88;;;;;;;13.76;68.69;100364.69;4974626;28;20105;-45
2020/12/10 10:04:29;;;;;;;73.07;47.83;;;;;;;13.71;67.81;100356.59;4976301;28;20043;-47
2020/12/10 10:06:58;;;;;;;12.27;8.30;;;;;;;13.83;68.31;100369.78;4969148;28;20118;-43
2020/12/10 10:09:26;;;;;;;16.65;7.15;;;;;;;13.82;68.24;100354.72;4975584;28;20054;-44
2020/12/10 10:11:52;;;;;;;9.77;7.03;;;;;;;13.79;67.84;100331.00;4972769;28;20484;-45
2020/12/10 10:14:18;;;;;;;23.83;12.05;;;;;;;13.84;68.41;100338.28;4978846;28;20051;-49
2020/12/10 10:16:43;;;;;;;21.20;8.10;;;;;;;13.87;68.25;100324.25;4973412;28;20042;-44
2020/12/10 10:19:09;;;;;;;11.27;7.60;;;;;;;13.90;68.09;100321.84;4978592;28;20345;-45
2020/12/10 10:21:34;;;;;;;11.73;4.68;;;;;;;13.91;68.19;100318.03;4986244;28;20502;-46
2020/12/10 10:24:00;;;;;;;17.27;6.25;;;;;;;14.04;68.64;100326.66;4984248;28;20069;-43
2020/12/10 10:26:25;;;;;;;5.88;4.18;;;;;;;14.03;68.57;100312.38;4973155;28;20035;-46
2020/12/10 10:28:53;;;;;;;10.07;4.03;;;;;;;14.08;67.32;100314.25;4978326;28;20043;-46
2020/12/10 10:31:19;;;;;;;13.13;2.80;;;;;;;14.17;67.31;100310.72;4973030;28;20031;-44
2020/12/10 10:33:45;;;;;;;9.80;7.55;;;;;;;14.42;67.86;100302.81;4978405;28;20092;-44
2020/12/10 10:36:11;;;;;;;15.98;5.50;;;;;;;14.43;67.66;100301.72;4972433;28;20062;-46
2020/12/10 10:38:36;;;;;;;10.20;4.95;;;;;;;14.48;66.94;100301.72;4978824;28;20479;-45
2020/12/10 10:41:02;;;;;;;18.95;4.57;;;;;;;14.48;66.69;100285.53;4972351;28;20039;-44
2020/12/10 10:43:28;;;;;;;11.63;4.05;;;;;;;14.57;66.91;100281.19;4978894;28;20030;-44
2020/12/10 10:45:54;;;;;;;18.23;7.38;;;;;;;14.59;67.07;100273.66;4972083;28;20038;-45
2020/12/10 10:48:19;;;;;;;14.40;6.13;;;;;;;14.54;66.91;100284.44;4978767;28;20022;-43
2020/12/10 10:50:45;;;;;;;11.50;4.53;;;;;;;14.70;66.82;100277.91;4971636;28;20108;-44
2020/12/10 10:53:10;;;;;;;23.58;4.88;;;;;;;14.69;65.79;100268.22;4977627;28;20030;-46
2020/12/10 10:55:36;;;;;;;18.35;3.35;;;;;;;15.02;65.57;100262.34;4973916;28;20092;-43
2020/12/10 10:58:01;;;;;;;9.07;4.03;;;;;;;15.12;65.18;100271.16;4976419;28;20042;-46
2020/12/10 11:00:27;;;;;;;19.77;5.07;;;;;;;15.76;65.37;100265.00;4975139;28;20109;-46
2020/12/10 11:02:52;;;;;;;9.98;4.22;;;;;;;15.65;63.79;100256.16;4975192;28;20027;-48
2020/12/10 11:05:18;;;;;;;10.02;3.55;;;;;;;15.88;64.08;100260.00;4975882;28;20141;-47
2020/12/10 11:07:43;;;;;;;7.97;1.73;;;;;;;16.20;61.91;100245.06;4974138;28;20043;-44
2020/12/10 11:10:10;;;;;;;8.50;4.22;;;;;;;16.02;62.85;100246.63;4976643;28;20054;-46
2020/12/10 11:12:36;;;;;;;24.10;6.00;;;;;;;15.99;62.09;100247.22;4973412;28;20037;-45
2020/12/10 11:15:02;;;;;;;11.85;5.10;;;;;;;16.43;61.71;100248.84;4977964;28;20109;-46
2020/12/10 11:17:27;;;;;;;16.83;4.55;;;;;;;16.43;62.43;100248.84;4972794;28;20041;-45
2020/12/10 11:19:53;;;;;;;8.25;3.85;;;;;;;16.73;62.42;100247.63;4978082;28;20051;-46
2020/12/10 11:22:18;;;;;;;17.17;4.30;;;;;;;16.79;60.38;100248.34;4975175;28;20042;-44
2020/12/10 11:24:48;;;;;;;8.63;5.50;;;;;;;16.75;60.78;100247.34;4984565;28;20454;-46